Time;durP1;ratioP1;P1;durP2;ratioP2;P2;SDS_P1;SDS_P2;PMS_P1;PMS_P2;Temp;Humidity;BMP_temperature;BMP_pressure;BME280_temperature;BME280_humidity;BME280_pressure;Samples;Min_cycle;Max_cycle;Signal;HPM_P1;HPM_P2
2023/12/30 00:02:04;;;;;;;3.67;1.67;;;;;;;7.69;100.00;97128.75;4986412;28;20461;-66
2023/12/30 00:04:31;;;;;;;3.47;1.20;;;;;;;7.66;100.00;97123.81;4984980;28;20101;-65
2023/12/30 00:06:57;;;;;;;3.03;1.60;;;;;;;7.67;100.00;97137.06;4984212;28;20042;-65
2023/12/30 00:09:24;;;;;;;2.47;1.10;;;;;;;7.65;100.00;97135.66;4984861;28;20105;-66
2023/12/30 00:11:50;;;;;;;2.92;1.42;;;;;;;7.62;100.00;97128.88;4986801;28;20050;-65
2023/12/30 00:14:17;;;;;;;3.40;1.40;;;;;;;7.52;100.00;97123.31;4983714;28;20574;-66
2023/12/30 00:16:43;;;;;;;5.45;1.70;;;;;;;7.47;100.00;97110.53;4983526;28;20716;-66
2023/12/30 00:19:12;;;;;;;3.05;1.30;;;;;;;7.48;100.00;97116.75;4981616;28;20525;-66
2023/12/30 00:21:39;;;;;;;5.03;1.45;;;;;;;7.52;100.00;97112.53;4960914;28;20061;-66
2023/12/30 00:24:05;;;;;;;3.80;1.60;;;;;;;7.53;100.00;97120.34;4981707;28;20506;-65
2023/12/30 00:26:32;;;;;;;5.10;1.50;;;;;;;7.52;100.00;97118.72;4981513;28;20117;-65
2023/12/30 00:29:05;;;;;;;3.78;1.50;;;;;;;7.51;100.00;97127.03;4983208;28;20051;-66
2023/12/30 00:31:32;;;;;;;2.60;1.48;;;;;;;7.59;100.00;97121.28;4974229;28;20042;-65
2023/12/30 00:34:00;;;;;;;4.25;1.67;;;;;;;7.65;100.00;97133.81;4983920;28;20497;-66
2023/12/30 00:36:28;;;;;;;3.28;1.67;;;;;;;7.73;100.00;97134.47;4987133;28;20855;-65
2023/12/30 00:38:55;;;;;;;3.38;1.52;;;;;;;7.66;100.00;97132.75;4981854;28;20149;-66
2023/12/30 00:41:22;;;;;;;6.90;1.40;;;;;;;7.64;100.00;97128.66;4982004;28;20043;-66
2023/12/30 00:43:49;;;;;;;1.77;0.90;;;;;;;7.60;100.00;97122.09;4974393;28;20039;-65
2023/12/30 00:46:19;;;;;;;2.13;1.10;;;;;;;7.63;100.00;97129.72;4983108;28;20125;-65
2023/12/30 00:48:46;;;;;;;3.08;1.10;;;;;;;7.57;100.00;97133.34;4985125;28;20536;-65
2023/12/30 00:51:24;;;;;;;3.80;1.50;;;;;;;7.58;100.00;97138.50;4983653;28;20034;-66
2023/12/30 00:53:50;;;;;;;3.00;1.40;;;;;;;7.56;100.00;97140.63;4985464;28;20054;-65
2023/12/30 00:56:17;;;;;;;3.20;1.50;;;;;;;7.45;100.00;97133.38;4996667;28;20821;-66
2023/12/30 00:58:44;;;;;;;2.80;1.42;;;;;;;7.34;100.00;97138.53;4983140;28;20050;-66
2023/12/30 01:01:10;;;;;;;3.10;1.27;;;;;;;7.11;100.00;97137.53;4981936;28;20268;-66
2023/12/30 01:03:37;;;;;;;3.45;1.50;;;;;;;7.01;100.00;97143.50;4980352;28;20050;-65
2023/12/30 01:06:04;;;;;;;3.38;1.38;;;;;;;7.00;100.00;97141.03;4977355;28;20050;-65
2023/12/30 01:08:31;;;;;;;4.28;1.80;;;;;;;6.95;100.00;97151.69;4984695;28;20042;-66
2023/12/30 01:10:57;;;;;;;7.03;1.73;;;;;;;6.90;100.00;97153.22;4979005;28;20046;-65
2023/12/30 01:13:24;;;;;;;3.38;1.60;;;;;;;6.88;100.00;97154.50;4984468;28;20081;-65
2023/12/30 01:15:51;;;;;;;3.10;1.60;;;;;;;6.83;100.00;97157.91;4985697;28;20046;-66
2023/12/30 01:18:17;;;;;;;3.15;1.55;;;;;;;6.86;100.00;97172.75;4996852;28;20120;-65
2023/12/30 01:20:44;;;;;;;2.42;1.45;;;;;;;6.99;100.00;97171.69;4981177;28;20051;-65
2023/12/30 01:23:11;;;;;;;4.10;1.50;;;;;;;7.14;100.00;97171.22;4981318;28;20039;-65
2023/12/30 01:25:38;;;;;;;4.68;1.80;;;;;;;7.12;100.00;97165.28;4977330;28;20053;-66
2023/12/30 01:28:07;;;;;;;2.78;1.30;;;;;;;7.08;100.00;97164.91;4981530;28;20498;-66
2023/12/30 01:30:36;;;;;;;2.97;1.50;;;;;;;7.06;100.00;97171.59;4971075;28;20077;-66
2023/12/30 01:33:04;;;;;;;4.10;1.30;;;;;;;7.09;100.00;97173.81;4981595;28;20118;-65
2023/12/30 01:35:32;;;;;;;3.33;1.30;;;;;;;7.06;100.00;97172.41;4963431;28;20056;-65
2023/12/30 01:37:58;;;;;;;3.72;1.30;;;;;;;7.03;100.00;97172.88;4984339;28;20046;-66
2023/12/30 01:40:28;;;;;;;2.72;1.20;;;;;;;7.08;100.00;97170.28;4979533;28;20066;-65
2023/12/30 01:42:56;;;;;;;4.95;1.25;;;;;;;6.94;100.00;97172.41;4977118;28;20045;-66
2023/12/30 01:45:23;;;;;;;3.00;1.33;;;;;;;6.89;100.00;97169.59;4986266;28;20086;-66
2023/12/30 01:47:50;;;;;;;2.88;1.00;;;;;;;6.88;100.00;97178.72;4984274;28;20064;-66
2023/12/30 01:50:17;;;;;;;2.83;1.10;;;;;;;6.85;100.00;97174.63;4978316;28;20043;-65
2023/12/30 01:52:46;;;;;;;2.53;1.23;;;;;;;6.87;100.00;97182.47;4983107;28;20099;-66
2023/12/30 01:55:14;;;;;;;3.72;1.17;;;;;;;6.94;100.00;97179.66;4988468;28;20046;-65
2023/12/30 01:57:42;;;;;;;1.70;0.90;;;;;;;7.04;100.00;97185.28;4982411;28;20666;-66
2023/12/30 02:00:11;;;;;;;2.72;1.30;;;;;;;6.98;100.00;97181.66;4980956;28;20085;-65
2023/12/30 02:02:39;;;;;;;2.92;1.00;;;;;;;6.84;100.00;97181.06;4978145;28;20043;-65
2023/12/30 02:05:06;;;;;;;1.70;0.90;;;;;;;6.88;100.00;97186.78;4982185;28;20065;-66
2023/12/30 02:07:33;;;;;;;2.03;1.10;;;;;;;6.89;100.00;97194.63;4980422;28;20096;-65
2023/12/30 02:09:59;;;;;;;1.85;0.90;;;;;;;6.88;100.00;97205.63;4983281;28;20038;-65
2023/12/30 02:12:27;;;;;;;2.60;1.00;;;;;;;6.94;100.00;97211.97;4983974;28;20053;-65
2023/12/30 02:14:53;;;;;;;2.05;0.90;;;;;;;6.97;100.00;97211.50;4983948;28;20534;-65
2023/12/30 02:17:20;;;;;;;3.83;1.13;;;;;;;6.91;100.00;97210.56;4982252;28;20734;-65
2023/12/30 02:19:47;;;;;;;2.92;0.90;;;;;;;6.94;100.00;97217.34;4980756;28;20057;-65
2023/12/30 02:22:15;;;;;;;1.40;0.80;;;;;;;6.89;100.00;97218.03;4984522;28;20070;-65
2023/12/30 02:24:42;;;;;;;1.33;0.77;;;;;;;6.84;100.00;97217.91;4979567;28;20576;-65
2023/12/30 02:27:09;;;;;;;2.42;1.00;;;;;;;6.70;100.00;97211.91;4980544;28;20541;-66
2023/12/30 02:29:36;;;;;;;3.08;0.80;;;;;;;6.63;100.00;97215.53;4975895;28;20133;-65
2023/12/30 02:32:02;;;;;;;2.65;0.77;;;;;;;6.58;100.00;97204.66;4984181;28;20046;-66
2023/12/30 02:34:29;;;;;;;2.15;0.88;;;;;;;6.67;100.00;97215.09;4995099;28;20682;-65
2023/12/30 02:36:55;;;;;;;2.65;0.88;;;;;;;6.61;100.00;97212.28;4984545;28;20046;-66
2023/12/30 02:39:22;;;;;;;3.40;1.25;;;;;;;6.60;100.00;97216.00;4978778;28;20073;-65
2023/12/30 02:41:49;;;;;;;2.60;1.02;;;;;;;6.55;100.00;97217.72;4982290;28;20035;-66
2023/12/30 02:44:18;;;;;;;3.28;1.00;;;;;;;6.52;100.00;97221.69;4983537;28;20570;-66
2023/12/30 02:46:45;;;;;;;2.22;0.80;;;;;;;6.50;100.00;97224.63;4984040;28;20053;-65
2023/12/30 02:49:12;;;;;;;3.30;1.33;;;;;;;6.49;100.00;97227.56;4981372;28;20050;-65
2023/12/30 02:51:38;;;;;;;5.78;1.30;;;;;;;6.52;100.00;97226.28;4971187;28;20035;-65
2023/12/30 02:54:05;;;;;;;2.05;1.05;;;;;;;6.59;100.00;97233.19;4980322;28;20064;-66
2023/12/30 02:56:32;;;;;;;2.65;0.95;;;;;;;6.56;100.00;97232.84;4984265;28;20046;-66
2023/12/30 02:59:00;;;;;;;4.13;1.35;;;;;;;6.41;100.00;97235.94;4982838;28;20050;-65
2023/12/30 03:01:28;;;;;;;3.13;1.23;;;;;;;6.38;100.00;97243.41;4981643;28;20046;-65
2023/12/30 03:03:57;;;;;;;2.13;1.10;;;;;;;6.47;100.00;97248.47;4980573;28;20557;-65
2023/12/30 03:06:24;;;;;;;3.17;1.08;;;;;;;6.46;100.00;97253.03;4981915;28;20054;-65
2023/12/30 03:08:52;;;;;;;2.05;0.90;;;;;;;6.49;100.00;97257.16;4980190;28;20303;-65
2023/12/30 03:11:19;;;;;;;2.25;1.10;;;;;;;6.42;100.00;97259.09;4977111;28;20138;-66
2023/12/30 03:13:46;;;;;;;4.63;1.20;;;;;;;6.37;100.00;97263.28;4980226;28;20039;-66
2023/12/30 03:16:15;;;;;;;2.17;1.08;;;;;;;6.44;100.00;97256.97;4982829;28;20057;-65
2023/12/30 03:18:43;;;;;;;5.13;1.13;;;;;;;6.49;100.00;97263.31;4979955;28;20105;-66
2023/12/30 03:21:14;;;;;;;2.95;0.90;;;;;;;6.46;100.00;97263.81;4971767;28;20087;-65
2023/12/30 03:23:40;;;;;;;1.58;0.80;;;;;;;6.49;100.00;97262.53;4980422;28;20045;-65
2023/12/30 03:26:09;;;;;;;1.73;0.90;;;;;;;6.52;100.00;97259.34;4997029;28;20049;-65
2023/12/30 03:28:36;;;;;;;1.40;0.80;;;;;;;6.46;100.00;97266.50;4981933;28;20038;-66
2023/12/30 03:31:03;;;;;;;1.77;0.88;;;;;;;6.41;100.00;97266.34;4974082;28;20074;-65
2023/12/30 03:33:30;;;;;;;2.50;1.00;;;;;;;6.34;100.00;97263.72;4983471;28;20576;-66
2023/12/30 03:35:57;;;;;;;4.03;1.00;;;;;;;6.27;100.00;97263.03;4981385;28;20521;-65
2023/12/30 03:38:24;;;;;;;3.17;1.42;;;;;;;6.23;100.00;97259.16;4991564;28;20136;-65
2023/12/30 03:40:50;;;;;;;3.70;1.00;;;;;;;6.23;100.00;97257.25;4982525;28;20465;-65
2023/12/30 03:43:17;;;;;;;2.38;1.08;;;;;;;6.24;100.00;97244.66;4990193;28;20670;-66
2023/12/30 03:45:43;;;;;;;3.00;1.02;;;;;;;6.20;100.00;97246.94;4981772;28;20038;-66
2023/12/30 03:48:10;;;;;;;3.08;1.10;;;;;;;6.22;100.00;97244.88;4975676;28;20046;-65
2023/12/30 03:50:37;;;;;;;2.83;1.05;;;;;;;6.30;100.00;97256.38;4980400;28;20046;-65
2023/12/30 03:53:05;;;;;;;2.83;1.02;;;;;;;6.30;100.00;97259.84;4983405;28;20054;-65
2023/12/30 03:55:31;;;;;;;3.05;1.40;;;;;;;6.27;100.00;97251.44;4977581;28;20512;-65
2023/12/30 03:57:58;;;;;;;5.57;1.20;;;;;;;6.35;100.00;97257.31;4978875;28;20097;-65
2023/12/30 04:00:25;;;;;;;2.55;1.00;;;;;;;6.31;100.00;97258.00;4982157;28;20046;-66
2023/12/30 04:02:51;;;;;;;1.70;0.88;;;;;;;6.33;100.00;97250.50;4975948;28;20522;-65
2023/12/30 04:05:18;;;;;;;2.53;1.00;;;;;;;6.29;100.00;97258.22;4982700;28;20050;-65
2023/12/30 04:07:46;;;;;;;1.88;1.00;;;;;;;6.33;100.00;97245.97;4974383;28;20048;-65
2023/12/30 04:10:14;;;;;;;2.70;1.00;;;;;;;6.25;100.00;97240.91;4982891;28;20050;-65
2023/12/30 04:12:41;;;;;;;1.90;1.00;;;;;;;6.20;100.00;97240.78;4981709;28;20038;-65
2023/12/30 04:15:10;;;;;;;3.25;1.30;;;;;;;6.21;100.00;97253.16;4981811;28;20520;-65
2023/12/30 04:17:37;;;;;;;2.47;1.00;;;;;;;6.22;100.00;97250.25;4975483;28;20051;-65
2023/12/30 04:20:05;;;;;;;2.88;1.10;;;;;;;6.20;100.00;97254.22;4983196;28;20046;-65
2023/12/30 04:22:33;;;;;;;2.13;1.00;;;;;;;6.17;100.00;97258.19;4985097;28;20077;-65
2023/12/30 04:25:00;;;;;;;2.20;1.08;;;;;;;6.06;100.00;97258.94;4981563;28;20066;-67
2023/12/30 04:27:27;;;;;;;2.03;0.98;;;;;;;5.99;100.00;97267.03;4984871;28;20050;-65
2023/12/30 04:29:54;;;;;;;2.78;1.17;;;;;;;5.97;100.00;97269.16;4980677;28;20490;-65
2023/12/30 04:32:21;;;;;;;2.42;1.13;;;;;;;5.97;100.00;97269.16;4978881;28;20053;-65
2023/12/30 04:34:48;;;;;;;4.25;1.25;;;;;;;5.92;100.00;97271.66;4987460;28;20132;-65
2023/12/30 04:37:16;;;;;;;2.50;1.10;;;;;;;5.91;100.00;97270.03;4999697;28;20053;-66
2023/12/30 04:39:43;;;;;;;2.75;1.33;;;;;;;5.96;100.00;97273.69;4986121;28;20117;-66
2023/12/30 04:42:12;;;;;;;3.20;1.40;;;;;;;5.97;100.00;97269.16;4994315;28;20054;-66
2023/12/30 04:44:38;;;;;;;2.70;1.35;;;;;;;6.02;100.00;97279.19;4983645;28;20454;-65
2023/12/30 04:47:06;;;;;;;3.75;1.23;;;;;;;6.01;100.00;97281.06;4980813;28;20076;-66
2023/12/30 04:49:33;;;;;;;2.42;1.10;;;;;;;5.99;100.00;97272.41;4996614;28;20066;-65
2023/12/30 04:52:00;;;;;;;4.07;1.55;;;;;;;6.02;100.00;97287.28;4978963;28;20068;-65
2023/12/30 04:54:27;;;;;;;3.72;1.23;;;;;;;6.01;100.00;97280.25;4982325;28;20046;-66
2023/12/30 04:56:54;;;;;;;2.80;1.30;;;;;;;5.97;100.00;97283.38;4979900;28;20048;-65
2023/12/30 04:59:20;;;;;;;3.05;1.23;;;;;;;5.94;100.00;97275.75;4983744;28;20046;-65
2023/12/30 05:01:47;;;;;;;3.53;1.25;;;;;;;5.93;100.00;97278.69;4982157;28;20043;-65
2023/12/30 05:04:14;;;;;;;3.35;1.10;;;;;;;5.96;100.00;97286.28;4984931;28;20047;-65
2023/12/30 05:06:41;;;;;;;2.55;1.20;;;;;;;5.89;100.00;97277.50;4981265;28;20034;-65
2023/12/30 05:09:08;;;;;;;2.15;1.20;;;;;;;5.90;100.00;97281.81;4980532;28;20034;-66
2023/12/30 05:11:35;;;;;;;4.00;1.40;;;;;;;5.97;100.00;97274.53;4977773;28;20042;-65
2023/12/30 05:14:02;;;;;;;5.03;1.52;;;;;;;5.91;100.00;97270.03;4985775;28;20043;-65
2023/12/30 05:16:28;;;;;;;2.15;1.13;;;;;;;5.89;100.00;97264.88;4981243;28;20384;-65
2023/12/30 05:18:55;;;;;;;2.75;1.05;;;;;;;5.89;100.00;97267.56;4984901;28;20574;-65
2023/12/30 05:21:22;;;;;;;1.58;0.88;;;;;;;5.91;100.00;97265.47;4981468;28;20117;-66
2023/12/30 05:23:48;;;;;;;4.53;1.15;;;;;;;5.88;100.00;97259.72;4983820;28;20034;-65
2023/12/30 05:26:15;;;;;;;2.55;0.98;;;;;;;5.90;100.00;97268.38;4985384;28;20444;-66
2023/12/30 05:28:41;;;;;;;4.70;1.40;;;;;;;5.76;100.00;97265.84;4984865;28;20414;-65
2023/12/30 05:31:08;;;;;;;3.10;1.35;;;;;;;5.60;100.00;97264.56;4985044;28;20113;-65
2023/12/30 05:33:34;;;;;;;3.90;1.55;;;;;;;5.45;100.00;97271.13;4978605;28;20042;-66
2023/12/30 05:36:01;;;;;;;3.45;1.05;;;;;;;5.38;100.00;97278.41;4984239;28;20458;-65
2023/12/30 05:38:28;;;;;;;1.83;0.85;;;;;;;5.31;100.00;97283.84;4983657;28;20042;-65
2023/12/30 05:40:54;;;;;;;2.08;0.95;;;;;;;5.18;100.00;97290.16;4980766;28;20556;-65
2023/12/30 05:43:20;;;;;;;3.75;1.17;;;;;;;5.03;100.00;97287.78;4983208;28;20478;-65
2023/12/30 05:45:49;;;;;;;2.58;1.02;;;;;;;4.94;100.00;97295.28;4981422;28;20045;-64
2023/12/30 05:48:16;;;;;;;3.15;1.40;;;;;;;4.88;100.00;97295.31;4982929;28;20072;-65
2023/12/30 05:50:43;;;;;;;3.72;1.42;;;;;;;4.87;100.00;97305.22;4980282;28;20078;-66
2023/12/30 05:53:11;;;;;;;2.22;1.25;;;;;;;4.89;100.00;97315.75;4984771;28;20450;-65
2023/12/30 05:55:40;;;;;;;3.30;1.27;;;;;;;4.92;100.00;97323.38;4980567;28;20065;-65
2023/12/30 05:58:06;;;;;;;5.20;1.45;;;;;;;4.93;100.00;97309.72;4977913;28;20047;-65
2023/12/30 06:00:33;;;;;;;4.93;1.45;;;;;;;5.04;100.00;97318.13;4975900;28;20050;-65
2023/12/30 06:03:00;;;;;;;4.18;1.30;;;;;;;5.21;100.00;97316.53;4978413;28;20085;-65
2023/12/30 06:05:26;;;;;;;4.28;0.90;;;;;;;5.44;100.00;97316.97;4976758;28;20046;-65
2023/12/30 06:07:53;;;;;;;1.95;0.95;;;;;;;5.67;100.00;97296.72;4983662;28;20042;-66
2023/12/30 06:10:20;;;;;;;2.30;1.20;;;;;;;5.86;100.00;97289.50;4983392;28;20034;-65
2023/12/30 06:12:46;;;;;;;3.08;0.88;;;;;;;5.96;100.00;97283.59;4980986;28;20221;-65
2023/12/30 06:15:13;;;;;;;2.35;0.93;;;;;;;6.16;100.00;97290.66;4983735;28;20457;-65
2023/12/30 06:17:40;;;;;;;2.10;0.80;;;;;;;6.23;100.00;97280.66;4985142;28;20046;-65
2023/12/30 06:20:09;;;;;;;2.22;0.90;;;;;;;6.25;100.00;97281.22;4986979;28;20053;-65
2023/12/30 06:22:36;;;;;;;2.78;0.90;;;;;;;6.24;100.00;97279.59;4983013;28;20520;-66
2023/12/30 06:25:03;;;;;;;2.50;1.17;;;;;;;6.29;100.00;97287.81;4983358;28;20300;-65
2023/12/30 06:27:30;;;;;;;2.85;0.80;;;;;;;6.36;100.00;97285.84;4983797;28;20608;-65
2023/12/30 06:29:57;;;;;;;1.88;0.80;;;;;;;6.33;100.00;97285.47;4982888;28;20042;-65
2023/12/30 06:32:23;;;;;;;2.72;0.88;;;;;;;6.27;100.00;97286.38;4982360;28;20136;-66
2023/12/30 06:34:50;;;;;;;2.25;0.80;;;;;;;6.10;100.00;97289.69;4979970;28;20053;-65
2023/12/30 06:37:16;;;;;;;3.28;1.05;;;;;;;6.03;100.00;97307.72;4977630;28;20043;-65
2023/12/30 06:39:44;;;;;;;2.85;1.05;;;;;;;5.97;100.00;97306.78;4980776;28;20137;-65
2023/12/30 06:42:11;;;;;;;2.00;0.90;;;;;;;5.96;100.00;97310.47;4981092;28;20038;-66
2023/12/30 06:44:38;;;;;;;2.50;1.15;;;;;;;5.91;100.00;97310.34;4971713;28;20041;-65
2023/12/30 06:47:05;;;;;;;2.72;0.98;;;;;;;5.80;100.00;97307.34;4982014;28;20042;-65
2023/12/30 06:49:31;;;;;;;3.08;0.90;;;;;;;5.73;100.00;97317.34;4978266;28;20081;-65
2023/12/30 06:51:58;;;;;;;2.58;1.10;;;;;;;5.69;100.00;97324.19;4981002;28;20038;-66
2023/12/30 06:54:25;;;;;;;2.63;1.08;;;;;;;5.69;100.00;97332.25;4983687;28;20046;-65
2023/12/30 06:56:53;;;;;;;1.88;1.05;;;;;;;5.71;100.00;97335.53;4983654;28;20462;-66
2023/12/30 06:59:20;;;;;;;3.28;1.10;;;;;;;5.75;100.00;97339.41;4983028;28;20134;-66
2023/12/30 07:01:47;;;;;;;3.00;1.10;;;;;;;5.76;100.00;97341.09;4983180;28;20469;-65
2023/12/30 07:04:14;;;;;;;2.97;0.95;;;;;;;5.81;100.00;97333.19;4983436;28;20077;-65
2023/12/30 07:06:41;;;;;;;3.38;1.23;;;;;;;5.85;100.00;97325.47;4981918;28;20038;-66
2023/12/30 07:09:07;;;;;;;4.28;1.55;;;;;;;5.83;100.00;97323.00;4980063;28;20066;-65
2023/12/30 07:11:34;;;;;;;3.20;1.48;;;;;;;5.84;100.00;97327.38;4982704;28;20097;-66
2023/12/30 07:14:01;;;;;;;3.50;1.42;;;;;;;5.91;100.00;97329.97;4976905;28;20105;-66
2023/12/30 07:16:27;;;;;;;2.38;1.33;;;;;;;5.96;100.00;97332.81;4979721;28;20045;-65
2023/12/30 07:18:54;;;;;;;3.00;1.40;;;;;;;6.07;100.00;97335.81;4980462;28;20042;-65
2023/12/30 07:21:20;;;;;;;3.33;1.50;;;;;;;6.15;100.00;97335.53;4977271;28;20042;-65
2023/12/30 07:23:47;;;;;;;3.47;1.35;;;;;;;6.23;100.00;97329.84;4980837;28;20047;-65
2023/12/30 07:26:14;;;;;;;1.92;0.90;;;;;;;6.26;100.00;97338.53;4976103;28;20471;-66
2023/12/30 07:28:40;;;;;;;3.25;1.17;;;;;;;6.35;100.00;97332.59;4982053;28;20045;-65
2023/12/30 07:31:07;;;;;;;2.03;0.82;;;;;;;6.34;100.00;97333.66;4979532;28;20042;-65
2023/12/30 07:33:35;;;;;;;2.67;1.10;;;;;;;6.30;100.00;97343.22;4997179;28;20043;-66
2023/12/30 07:36:06;;;;;;;2.42;1.02;;;;;;;6.28;100.00;97345.31;4978976;28;20046;-66
2023/12/30 07:38:33;;;;;;;2.63;1.20;;;;;;;6.24;100.00;97339.56;4977831;28;20178;-66
2023/12/30 07:40:59;;;;;;;2.20;0.90;;;;;;;6.27;100.00;97351.75;4976072;28;20504;-66
2023/12/30 07:43:26;;;;;;;4.00;1.23;;;;;;;6.29;100.00;97352.34;4980542;28;20049;-66
2023/12/30 07:45:52;;;;;;;3.47;1.10;;;;;;;6.28;100.00;97345.31;4983108;28;20100;-66
2023/12/30 07:48:19;;;;;;;2.50;1.40;;;;;;;6.27;100.00;97348.22;4982597;28;20101;-67
2023/12/30 07:50:45;;;;;;;2.60;1.40;;;;;;;6.28;100.00;97348.00;4981403;28;20046;-66
2023/12/30 07:53:12;;;;;;;3.03;1.40;;;;;;;6.32;100.00;97349.22;4981259;28;20043;-67
2023/12/30 07:55:39;;;;;;;2.35;1.38;;;;;;;6.42;100.00;97346.00;4981698;28;20380;-66
2023/12/30 07:58:05;;;;;;;3.28;1.50;;;;;;;6.45;100.00;97358.97;4980136;28;20141;-66
2023/12/30 08:00:32;;;;;;;4.45;1.55;;;;;;;6.43;100.00;97352.19;4983223;28;20057;-66
2023/12/30 08:02:59;;;;;;;3.17;1.58;;;;;;;6.43;100.00;97355.69;4983896;28;20101;-66
2023/12/30 08:05:26;;;;;;;2.47;1.40;;;;;;;6.40;100.00;97360.69;4984193;28;20054;-66
2023/12/30 08:07:52;;;;;;;2.97;1.10;;;;;;;6.43;100.00;97360.25;4978782;28;20057;-66
2023/12/30 08:10:19;;;;;;;3.60;1.15;;;;;;;6.51;100.00;97359.94;4983816;28;20065;-66
2023/12/30 08:12:46;;;;;;;2.50;1.40;;;;;;;6.48;100.00;97365.75;4978989;28;20058;-66
2023/12/30 08:15:13;;;;;;;4.30;1.88;;;;;;;6.53;100.00;97374.00;4979873;28;20057;-66
2023/12/30 08:17:39;;;;;;;5.55;2.28;;;;;;;6.56;100.00;97373.53;4980229;28;20042;-66
2023/12/30 08:20:07;;;;;;;4.40;1.40;;;;;;;6.58;100.00;97382.22;4981853;28;20054;-66
2023/12/30 08:22:33;;;;;;;2.30;1.02;;;;;;;6.60;100.00;97377.41;4982702;28;20560;-66
2023/12/30 08:25:00;;;;;;;3.22;1.27;;;;;;;6.68;100.00;97378.16;4982090;28;20577;-66
2023/12/30 08:27:27;;;;;;;1.73;0.70;;;;;;;6.75;100.00;97376.22;4978903;28;20046;-65
2023/12/30 08:29:53;;;;;;;3.15;1.15;;;;;;;6.81;100.00;97371.78;4981310;28;20038;-66
2023/12/30 08:32:19;;;;;;;1.75;0.90;;;;;;;6.81;100.00;97375.28;4978490;28;20047;-66
2023/12/30 08:34:46;;;;;;;3.42;0.90;;;;;;;6.75;100.00;97378.91;4981767;28;20042;-66
2023/12/30 08:37:13;;;;;;;3.85;1.13;;;;;;;6.63;100.00;97376.97;4983118;28;20121;-67
2023/12/30 08:39:40;;;;;;;2.55;1.17;;;;;;;6.58;100.00;97373.31;4975999;28;20399;-66
2023/12/30 08:42:06;;;;;;;3.45;1.42;;;;;;;6.53;100.00;97379.38;4983391;28;20048;-66
2023/12/30 08:44:37;;;;;;;4.07;1.50;;;;;;;6.53;100.00;97392.84;4983168;28;20128;-66
2023/12/30 08:47:04;;;;;;;3.22;1.38;;;;;;;6.53;100.00;97384.75;4977004;28;20054;-66
2023/12/30 08:49:31;;;;;;;2.85;1.42;;;;;;;6.52;100.00;97379.59;4982263;28;20046;-65
2023/12/30 08:51:58;;;;;;;1.67;0.90;;;;;;;6.64;100.00;97378.59;4979914;28;20042;-66
2023/12/30 08:54:25;;;;;;;1.67;0.85;;;;;;;6.67;100.00;97379.22;4985502;28;20042;-66
2023/12/30 08:56:53;;;;;;;2.65;1.00;;;;;;;6.80;100.00;97375.50;4985378;28;20049;-66
2023/12/30 08:59:21;;;;;;;2.03;0.90;;;;;;;6.79;100.00;97371.19;4979700;28;20701;-66
2023/12/30 09:01:48;;;;;;;2.00;1.00;;;;;;;6.86;100.00;97370.03;4984705;28;20128;-66
2023/12/30 09:04:15;;;;;;;1.88;0.85;;;;;;;6.96;100.00;97366.81;4979269;28;20137;-66
2023/12/30 09:06:41;;;;;;;2.28;0.90;;;;;;;6.95;100.00;97356.25;4983984;28;20046;-67
2023/12/30 09:09:08;;;;;;;4.18;0.90;;;;;;;7.00;100.00;97362.59;4982834;28;20050;-66
2023/12/30 09:11:38;;;;;;;3.63;1.08;;;;;;;6.93;100.00;97361.06;4979971;28;20053;-66
2023/12/30 09:14:05;;;;;;;2.45;0.93;;;;;;;6.92;100.00;97362.94;4983279;28;20049;-66
2023/12/30 09:16:32;;;;;;;3.50;1.02;;;;;;;7.00;100.00;97367.16;4979555;28;20125;-66
2023/12/30 09:18:59;;;;;;;4.97;1.23;;;;;;;7.01;100.00;97360.75;4978274;28;20042;-66
2023/12/30 09:21:26;;;;;;;3.92;0.90;;;;;;;7.00;100.00;97349.16;4983009;28;20684;-65
2023/12/30 09:23:52;;;;;;;2.83;1.17;;;;;;;7.05;100.00;97356.56;4976483;28;20458;-67
2023/12/30 09:26:19;;;;;;;4.20;1.10;;;;;;;7.23;100.00;97354.84;4981732;28;20061;-66
2023/12/30 09:28:46;;;;;;;4.32;1.02;;;;;;;7.27;100.00;97356.81;4981540;28;20112;-65
2023/12/30 09:31:13;;;;;;;2.90;0.85;;;;;;;7.33;100.00;97363.16;4976430;28;20061;-66
2023/12/30 09:33:40;;;;;;;1.48;0.60;;;;;;;7.38;100.00;97365.97;4982459;28;20041;-66
2023/12/30 09:36:07;;;;;;;1.33;0.52;;;;;;;7.43;100.00;97368.00;4980121;28;20042;-66
2023/12/30 09:38:34;;;;;;;5.07;0.80;;;;;;;7.52;100.00;97368.47;4981317;28;20053;-65
2023/12/30 09:41:00;;;;;;;0.70;0.43;;;;;;;7.65;100.00;97379.03;4980831;28;20046;-65
2023/12/30 09:43:28;;;;;;;1.45;0.60;;;;;;;7.72;100.00;97383.50;4982395;28;20089;-66
2023/12/30 09:45:56;;;;;;;0.98;0.50;;;;;;;7.72;100.00;97387.00;4982762;28;20039;-66
2023/12/30 09:48:26;;;;;;;3.13;0.70;;;;;;;7.76;100.00;97387.34;4979329;28;20054;-66
2023/12/30 09:50:55;;;;;;;1.25;0.70;;;;;;;7.82;100.00;97389.13;4978759;28;20052;-66
2023/12/30 09:53:23;;;;;;;1.75;0.50;;;;;;;7.75;100.00;97388.41;4981667;28;20054;-66
2023/12/30 09:55:51;;;;;;;3.03;0.68;;;;;;;7.67;100.00;97393.09;4980842;28;20034;-66
2023/12/30 09:58:18;;;;;;;1.52;0.68;;;;;;;7.59;100.00;97393.44;4982659;28;20415;-66
2023/12/30 10:00:45;;;;;;;2.20;1.00;;;;;;;7.56;100.00;97388.53;4980792;28;20049;-66
2023/12/30 10:03:13;;;;;;;3.95;0.88;;;;;;;7.59;100.00;97392.63;4977635;28;20053;-65
2023/12/30 10:05:40;;;;;;;1.95;0.70;;;;;;;7.58;100.00;97393.66;4977654;28;20502;-66
2023/12/30 10:08:07;;;;;;;1.75;0.65;;;;;;;7.63;100.00;97389.22;4979651;28;20042;-66
2023/12/30 10:10:41;;;;;;;2.28;0.88;;;;;;;7.75;100.00;97391.94;4979091;28;20050;-67
2023/12/30 10:13:07;;;;;;;2.53;0.55;;;;;;;7.96;100.00;97386.19;4968426;28;20057;-65
2023/12/30 10:15:39;;;;;;;2.03;0.57;;;;;;;8.08;100.00;97387.03;4967233;28;20461;-65
2023/12/30 10:18:07;;;;;;;0.95;0.50;;;;;;;8.16;100.00;97396.63;4981021;28;20053;-65
2023/12/30 10:20:39;;;;;;;1.23;0.52;;;;;;;8.14;100.00;97393.34;4981541;28;20042;-65
2023/12/30 10:23:08;;;;;;;;;;;;;;;8.14;100.00;97385.28;4974209;28;20097;-66
2023/12/30 10:25:36;;;;;;;2.20;0.88;;;;;;;8.09;100.00;97388.66;4981483;28;19936;-66
2023/12/30 10:28:03;;;;;;;2.08;0.60;;;;;;;8.12;100.00;97385.50;4981568;28;20042;-65
2023/12/30 10:30:30;;;;;;;3.60;0.88;;;;;;;8.11;100.00;97385.72;4980311;28;20042;-66
2023/12/30 10:33:24;;;;;;;2.60;0.63;;;;;;;8.03;100.00;97385.03;4981744;28;20050;-66
2023/12/30 10:35:51;;;;;;;2.05;0.57;;;;;;;8.02;100.00;97379.84;4968588;28;20908;-67
2023/12/30 10:38:17;;;;;;;2.53;0.60;;;;;;;8.02;100.00;97383.38;4970739;28;20129;-67
2023/12/30 10:40:44;;;;;;;2.78;0.90;;;;;;;8.08;100.00;97387.03;4978036;28;20543;-67
2023/12/30 10:43:12;;;;;;;1.33;0.60;;;;;;;8.07;100.00;97385.34;4977735;28;20798;-68
2023/12/30 10:45:39;;;;;;;2.75;0.60;;;;;;;8.05;100.00;97374.00;4973202;28;20053;-68
2023/12/30 10:48:06;;;;;;;2.13;0.60;;;;;;;8.05;100.00;97390.19;4981547;28;20120;-67
2023/12/30 10:50:38;;;;;;;2.50;0.73;;;;;;;8.05;100.00;97382.94;4969706;28;20545;-67
2023/12/30 10:53:10;;;;;;;5.88;0.80;;;;;;;8.06;100.00;97379.16;4982853;28;20057;-67
2023/12/30 10:55:44;;;;;;;1.35;0.55;;;;;;;8.13;100.00;97379.03;4979875;28;20042;-68
2023/12/30 10:58:17;;;;;;;2.22;0.70;;;;;;;8.22;100.00;97381.38;4981340;28;20074;-67
2023/12/30 11:00:51;;;;;;;2.30;0.60;;;;;;;8.41;100.00;97385.56;4976546;28;20045;-67
2023/12/30 11:03:19;;;;;;;1.70;0.60;;;;;;;8.41;100.00;97380.16;4976186;28;20031;-67
2023/12/30 11:06:18;;;;;;;3.15;0.70;;;;;;;8.50;100.00;97377.94;4972913;28;20134;-67
2023/12/30 11:08:45;;;;;;;1.88;1.23;;;;;;;8.56;100.00;97376.19;4981185;28;20050;-68
2023/12/30 11:11:14;;;;;;;1.95;0.50;;;;;;;8.63;100.00;97378.75;4978640;28;20506;-66
2023/12/30 11:13:41;;;;;;;1.33;0.50;;;;;;;8.59;100.00;97375.72;4977616;28;20073;-67
2023/12/30 11:16:15;;;;;;;1.58;0.50;;;;;;;8.43;100.00;97375.38;4976217;28;20050;-67
2023/12/30 11:18:47;;;;;;;2.05;0.43;;;;;;;8.40;100.00;97377.72;4974852;28;20441;-67
2023/12/30 11:21:43;;;;;;;1.38;0.40;;;;;;;8.38;100.00;97377.97;4978646;28;20441;-67
2023/12/30 11:24:11;;;;;;;2.00;0.60;;;;;;;8.55;100.00;97374.56;4982724;28;20494;-67
2023/12/30 11:26:42;;;;;;;0.43;0.32;;;;;;;8.68;100.00;97376.97;4982118;28;20049;-67
2023/12/30 11:29:17;;;;;;;1.02;0.40;;;;;;;8.84;100.00;97367.28;4983202;28;20109;-64
2023/12/30 11:31:46;;;;;;;0.55;0.40;;;;;;;8.94;100.00;97366.66;4978349;28;20042;-63
2023/12/30 11:34:15;;;;;;;1.67;0.30;;;;;;;9.09;99.42;97362.59;4981099;28;20042;-63
2023/12/30 11:36:43;;;;;;;0.70;0.32;;;;;;;9.10;99.39;97356.97;4975262;28;20039;-62